^^
Station Historical Data
Daily Summary for Nil La, TWC- Units:  English    Metric   Both
« Previous Day
Next Day »
Daily Weekly Monthly Yearly Custom
  High: Low: Average:
Temperature: TemperatureC °F 5.3 °F 14.9 °F
Dew Point: DewpointC °F 3.3 °F 5.2 °F
Humidity: Humidity% 34% 56%
Wind Speed: WindSpeedKMHmph 0.0mph 0.4mph
Wind Gust: WindSpeedGustKMHmph - -
Wind- - SE
Pressure: PressurehPa in 1028.3 in -
Precipitation: 0.0 in    
Historical Graphs
 
 
Tabular Data for Nil La, TWC-
Time Temperature Dew Point Pressure Wind Wind Speed Wind Gust Humidity Rainfall Rate (Hourly) solar Conditions
TemperatureC °F DewpointC °F PressurehPa in Calm     Humidity% HourlyPrecipMM in SoftwareType W/m2 Conditions
00:03 9.4 °F 5.4 °F 1029.0 in Calm     76% 0.0 in WeatherDisplay:10.37 W/m2 CLR
00:08 9.3 °F 5.3 °F 1029.0 in Calm     76% 0.0 in WeatherDisplay:10.37 W/m2 CLR
00:13 9.3 °F 5.4 °F 1029.0 in Calm     77% 0.0 in WeatherDisplay:10.37 W/m2 CLR
00:18 9.2 °F 5.3 °F 1029.0 in Calm     77% 0.0 in WeatherDisplay:10.37 W/m2 CLR
00:23 9.1 °F 5.2 °F 1029.0 in Calm     77% 0.0 in WeatherDisplay:10.37 W/m2 CLR
00:28 9.0 °F 5.4 °F 1029.0 in Calm     78% 0.0 in WeatherDisplay:10.37 W/m2 CLR
00:33 8.9 °F 5.3 °F 1029.0 in Calm     78% 0.0 in WeatherDisplay:10.37 W/m2 CLR
00:38 8.8 °F 5.2 °F 1029.0 in Calm     78% 0.0 in WeatherDisplay:10.37 W/m2 CLR
00:43 8.7 °F 5.1 °F 1029.0 in Calm     78% 0.0 in WeatherDisplay:10.37 W/m2 CLR
00:48 8.6 °F 5.0 °F 1029.0 in Calm     78% 0.0 in WeatherDisplay:10.37 W/m2 CLR
00:54 8.6 °F 5.1 °F 1029.0 in Calm     79% 0.0 in WeatherDisplay:10.37 W/m2 CLR
00:59 8.5 °F 5.2 °F 1029.0 in Calm     80% 0.0 in WeatherDisplay:10.37 W/m2 CLR
01:04 8.4 °F 4.9 °F 1029.0 in Calm     79% 0.0 in WeatherDisplay:10.37 W/m2 CLR
01:09 8.2 °F 5.0 °F 1029.0 in Calm     80% 0.0 in WeatherDisplay:10.37 W/m2 CLR
01:14 8.2 °F 4.9 °F 1029.3 in Calm     80% 0.0 in WeatherDisplay:10.37 W/m2 CLR
01:19 8.0 °F 4.8 °F 1029.3 in Calm     80% 0.0 in WeatherDisplay:10.37 W/m2 CLR
01:24 7.9 °F 4.9 °F 1029.0 in Calm     81% 0.0 in WeatherDisplay:10.37 W/m2 CLR
01:29 7.8 °F 4.8 °F 1029.3 in Calm     81% 0.0 in WeatherDisplay:10.37 W/m2 CLR
01:34 7.8 °F 4.7 °F 1029.0 in Calm     81% 0.0 in WeatherDisplay:10.37 W/m2 CLR
01:39 7.7 °F 4.7 °F 1029.0 in Calm     81% 0.0 in WeatherDisplay:10.37 W/m2 CLR
01:44 7.7 °F 4.6 °F 1029.0 in Calm     81% 0.0 in WeatherDisplay:10.37 W/m2 CLR
01:49 7.6 °F 4.7 °F 1029.0 in Calm     82% 0.0 in WeatherDisplay:10.37 W/m2 CLR
01:54 7.5 °F 4.6 °F 1029.0 in Calm     82% 0.0 in WeatherDisplay:10.37 W/m2 CLR
02:00 7.4 °F 4.6 °F 1029.0 in Calm     82% 0.0 in WeatherDisplay:10.37 W/m2 CLR
02:05 7.3 °F 4.4 °F 1029.0 in Calm     82% 0.0 in WeatherDisplay:10.37 W/m2 CLR
02:10 7.2 °F 4.3 °F 1029.0 in Calm     82% 0.0 in WeatherDisplay:10.37 W/m2 CLR
02:15 7.1 °F 4.4 °F 1029.0 in Calm     83% 0.0 in WeatherDisplay:10.37 W/m2 CLR
02:20 6.9 °F 4.3 °F 1029.3 in Calm     83% 0.0 in WeatherDisplay:10.37 W/m2 CLR
02:25 6.8 °F 4.1 °F 1029.3 in Calm     83% 0.0 in WeatherDisplay:10.37 W/m2 CLR
02:30 6.7 °F 4.2 °F 1029.0 in Calm     84% 0.0 in WeatherDisplay:10.37 W/m2 CLR
02:35 6.7 °F 4.2 °F 1029.0 in Calm     84% 0.0 in WeatherDisplay:10.37 W/m2 CLR
02:40 6.6 °F 4.1 °F 1029.3 in Calm     84% 0.0 in WeatherDisplay:10.37 W/m2 CLR
02:45 6.6 °F 4.1 °F 1029.3 in Calm     84% 0.0 in WeatherDisplay:10.37 W/m2 CLR
02:50 6.5 °F 4.0 °F 1029.3 in Calm     84% 0.0 in WeatherDisplay:10.37 W/m2 CLR
02:55 6.4 °F 4.1 °F 1029.3 in Calm     85% 0.0 in WeatherDisplay:10.37 W/m2 CLR
03:00 6.4 °F 3.9 °F 1029.3 in Calm     84% 0.0 in WeatherDisplay:10.37 W/m2 CLR
03:06 6.4 °F 3.9 °F 1029.3 in Calm     84% 0.0 in WeatherDisplay:10.37 W/m2 CLR
03:11 6.4 °F 4.1 °F 1029.3 in Calm     85% 0.0 in WeatherDisplay:10.37 W/m2 CLR
03:16 6.4 °F 4.1 °F 1029.3 in Calm     85% 0.0 in WeatherDisplay:10.37 W/m2 CLR
03:21 6.3 °F 4.0 °F 1029.3 in Calm     85% 0.0 in WeatherDisplay:10.37 W/m2 CLR
03:26 6.3 °F 4.0 °F 1029.3 in Calm     85% 0.0 in WeatherDisplay:10.37 W/m2 CLR
03:31 6.2 °F 3.7 °F 1029.3 in Calm     84% 0.0 in WeatherDisplay:10.37 W/m2 CLR
03:36 6.2 °F 3.8 °F 1029.3 in Calm     85% 0.0 in WeatherDisplay:10.37 W/m2 CLR
03:41 6.1 °F 3.8 °F 1029.3 in Calm     85% 0.0 in WeatherDisplay:10.37 W/m2 CLR
03:46 6.0 °F 3.7 °F 1029.3 in Calm     85% 0.0 in WeatherDisplay:10.37 W/m2 CLR
03:51 5.9 °F 3.6 °F 1029.3 in Calm     85% 0.0 in WeatherDisplay:10.37 W/m2 CLR
03:56 5.8 °F 3.5 °F 1029.3 in Calm     85% 0.0 in WeatherDisplay:10.37 W/m2 CLR
04:01 5.8 °F 3.4 °F 1029.3 in Calm     85% 0.0 in WeatherDisplay:10.37 W/m2 CLR
04:06 5.7 °F 3.5 °F 1029.3 in Calm     86% 0.0 in WeatherDisplay:10.37 W/m2 CLR
04:12 5.6 °F 3.4 °F 1029.3 in Calm     86% 0.0 in WeatherDisplay:10.37 W/m2 CLR
04:17 5.5 °F 3.3 °F 1029.3 in Calm     86% 0.0 in WeatherDisplay:10.37 W/m2 CLR
04:22 5.4 °F 3.4 °F 1029.3 in Calm     87% 0.0 in WeatherDisplay:10.37 W/m2 CLR
04:27 5.4 °F 3.4 °F 1029.3 in Calm     87% 0.0 in WeatherDisplay:10.37 W/m2 CLR
04:32 5.3 °F 3.3 °F 1029.3 in Calm     87% 0.0 in WeatherDisplay:10.37 W/m2 CLR
04:37 5.3 °F 3.3 °F 1029.3 in Calm     87% 0.0 in WeatherDisplay:10.37 W/m2 CLR
04:42 5.3 °F 3.3 °F 1029.3 in Calm     87% 0.0 in WeatherDisplay:10.37 W/m2 CLR
04:47 5.3 °F 3.3 °F 1029.3 in Calm     87% 0.0 in WeatherDisplay:10.37 W/m2 CLR
04:52 5.3 °F 3.3 °F 1029.3 in Calm     87% 0.0 in WeatherDisplay:10.37 W/m2 CLR
04:57 5.3 °F 3.3 °F 1029.3 in Calm     87% 0.0 in WeatherDisplay:10.37 W/m2 CLR
05:02 5.3 °F 3.3 °F 1029.3 in Calm     87% 0.0 in WeatherDisplay:10.37 W/m2 CLR
05:07 5.3 °F 3.3 °F 1029.3 in Calm     87% 0.0 in WeatherDisplay:10.37 W/m2 CLR
05:12 5.4 °F 3.4 °F 1029.7 in Calm     87% 0.0 in WeatherDisplay:10.37 W/m2 CLR
05:18 5.5 °F 3.5 °F 1029.7 in Calm     87% 0.0 in WeatherDisplay:10.37 W/m2 CLR
05:23 5.6 °F 3.6 °F 1029.7 in Calm     87% 0.0 in WeatherDisplay:10.37 W/m2 CLR
05:28 5.7 °F 3.7 °F 1029.7 in Calm     87% 0.0 in WeatherDisplay:10.37 W/m2 CLR
05:33 5.8 °F 4.4 °F 1029.7 in Calm     91% 0.0 in WeatherDisplay:10.37 W/m2 CLR
05:38 5.9 °F 3.8 °F 1029.7 in Calm     86% 0.0 in WeatherDisplay:10.37 W/m2 CLR
05:43 6.1 °F 3.9 °F 1029.7 in Calm     86% 0.0 in WeatherDisplay:10.37 W/m2 CLR
05:48 6.2 °F 4.0 °F 1029.7 in Calm     86% 0.0 in WeatherDisplay:10.37 W/m2 CLR
05:53 6.2 °F 4.2 °F 1029.7 in Calm     87% 0.0 in WeatherDisplay:10.37 W/m2 CLR
05:58 6.3 °F 4.3 °F 1029.7 in Calm     87% 0.0 in WeatherDisplay:10.37 W/m2 CLR
06:03 6.5 °F 4.3 °F 1029.7 in Calm     86% 0.0 in WeatherDisplay:10.37 W/m2 CLR
06:08 6.8 °F 4.6 °F 1029.7 in Calm     86% 0.0 in WeatherDisplay:10.37 W/m2 CLR
06:13 7.0 °F 4.8 °F 1029.7 in Calm     86% 0.0 in WeatherDisplay:10.37 W/m2 CLR
06:18 7.2 °F 5.1 °F 1030.0 in Calm     86% 0.0 in WeatherDisplay:10.37 W/m2 CLR
06:24 7.5 °F 5.3 °F 1030.0 in Calm     86% 0.0 in WeatherDisplay:10.37 W/m2 CLR
06:29 7.8 °F 5.6 °F 1030.0 in Calm     86% 0.0 in WeatherDisplay:10.37 W/m2 CLR
06:34 8.1 °F 5.8 °F 1030.0 in Calm     86% 0.0 in WeatherDisplay:10.37 W/m2 CLR
06:39 8.3 °F 5.9 °F 1030.0 in Calm     85% 0.0 in WeatherDisplay:10.37 W/m2 CLR
06:44 8.6 °F 6.2 °F 1030.0 in Calm     85% 0.0 in WeatherDisplay:10.37 W/m2 CLR
06:49 8.8 °F 6.4 °F 1030.0 in Calm     85% 0.0 in WeatherDisplay:10.37 W/m2 CLR
06:54 9.1 °F 6.7 °F 1030.0 in Calm     85% 0.0 in WeatherDisplay:10.37 W/m2 CLR
06:59 9.3 °F 7.1 °F 1030.0 in Calm     86% 0.0 in WeatherDisplay:10.37 W/m2 CLR
07:04 9.6 °F 7.2 °F 1030.0 in Calm     85% 0.0 in WeatherDisplay:10.37 W/m2 CLR
07:09 9.9 °F 7.7 °F 1030.0 in Calm     86% 0.0 in WeatherDisplay:10.37 W/m2 CLR
07:14 10.2 °F 7.8 °F 1030.0 in Calm     85% 0.0 in WeatherDisplay:10.37 W/m2 CLR
07:19 10.6 °F 8.3 °F 1030.0 in Calm     86% 0.0 in WeatherDisplay:10.37 W/m2 CLR
07:24 10.9 °F 8.7 °F 1030.0 in Calm     86% 0.0 in WeatherDisplay:10.37 W/m2 CLR
07:30 11.3 °F 8.8 °F 1030.0 in Calm     85% 0.0 in WeatherDisplay:10.37 W/m2 CLR
07:35 11.6 °F 8.7 °F 1030.0 in Calm     82% 0.0 in WeatherDisplay:10.37 W/m2 CLR
07:40 12.0 °F 8.3 °F 1030.0 in Calm   1.9 mph 78% 0.0 in WeatherDisplay:10.37 W/m2 CLR
07:45 12.3 °F 7.8 °F 1030.0 in Calm     74% 0.0 in WeatherDisplay:10.37 W/m2 CLR
07:50 12.7 °F 6.7 °F 1030.0 in Calm   1.9 mph 67% 0.0 in WeatherDisplay:10.37 W/m2 CLR
07:55 13.2 °F 5.8 °F 1030.0 in Calm   1.9 mph 61% 0.0 in WeatherDisplay:10.37 W/m2 CLR
08:00 13.7 °F 5.8 °F 1030.0 in Calm     59% 0.0 in WeatherDisplay:10.37 W/m2 CLR
08:05 14.2 °F 5.2 °F 1030.0 in Calm     55% 0.0 in WeatherDisplay:10.37 W/m2 CLR
08:10 14.6 °F 5.7 °F 1030.0 in Calm     55% 0.0 in WeatherDisplay:10.37 W/m2 CLR
08:15 14.8 °F 6.9 °F 1030.0 in Calm     59% 0.0 in WeatherDisplay:10.37 W/m2 CLR
08:20 15.0 °F 6.3 °F 1030.0 in SSE 0.2 mph   56% 0.0 in WeatherDisplay:10.37 W/m2 CLR
08:25 15.2 °F 6.5 °F 1030.0 in Calm     56% 0.0 in WeatherDisplay:10.37 W/m2 CLR
08:30 15.4 °F 6.4 °F 1030.0 in Calm     55% 0.0 in WeatherDisplay:10.37 W/m2 CLR
08:36 15.6 °F 5.8 °F 1030.0 in SSE 0.3 mph 3.2 mph 52% 0.0 in WeatherDisplay:10.37 W/m2 CLR
08:41 16.0 °F 6.7 °F 1030.0 in Calm     54% 0.0 in WeatherDisplay:10.37 W/m2 CLR
08:46 16.3 °F 6.4 °F 1030.0 in Calm     52% 0.0 in WeatherDisplay:10.37 W/m2 CLR
08:51 16.4 °F 6.6 °F 1030.4 in Calm   1.9 mph 52% 0.0 in WeatherDisplay:10.37 W/m2 CLR
08:56 16.7 °F 5.6 °F 1030.4 in Calm     48% 0.0 in WeatherDisplay:10.37 W/m2 CLR
09:01 16.9 °F 6.2 °F 1030.4 in Calm     49% 0.0 in WeatherDisplay:10.37 W/m2 CLR
09:06 17.2 °F 5.8 °F 1030.4 in SSE 0.2 mph 1.9 mph 47% 0.0 in WeatherDisplay:10.37 W/m2 CLR
09:11 17.4 °F 5.4 °F 1030.4 in Calm     45% 0.0 in WeatherDisplay:10.37 W/m2 CLR
09:16 17.7 °F 5.9 °F 1030.4 in Calm   1.9 mph 46% 0.0 in WeatherDisplay:10.37 W/m2 CLR
09:21 18.2 °F 6.1 °F 1030.4 in SSE 0.2 mph 1.6 mph 45% 0.0 in WeatherDisplay:10.37 W/m2 CLR
09:26 18.5 °F 5.3 °F 1030.4 in Calm   1.6 mph 42% 0.0 in WeatherDisplay:10.37 W/m2 CLR
09:31 18.8 °F 4.6 °F 1030.4 in Calm     39% 0.0 in WeatherDisplay:10.37 W/m2 CLR
09:36 19.2 °F 5.2 °F 1030.4 in Calm     40% 0.0 in WeatherDisplay:10.37 W/m2 CLR
09:42 19.5 °F 4.8 °F 1030.4 in Calm   5.6 mph 38% 0.0 in WeatherDisplay:10.37 W/m2 CLR
09:47 19.6 °F 5.6 °F 1030.4 in Calm   1.9 mph 40% 0.0 in WeatherDisplay:10.37 W/m2 CLR
09:52 19.7 °F 5.4 °F 1030.4 in SSE 0.2 mph 5.6 mph 39% 0.0 in WeatherDisplay:10.37 W/m2 CLR
09:57 19.9 °F 5.2 °F 1030.0 in Calm     38% 0.0 in WeatherDisplay:10.37 W/m2 CLR
10:02 20.1 °F 5.7 °F 1030.0 in SSE 0.8 mph 3.2 mph 39% 0.0 in WeatherDisplay:10.37 W/m2 CLR
10:07 20.4 °F 6.3 °F 1030.0 in Calm     40% 0.0 in WeatherDisplay:10.37 W/m2 CLR
10:12 20.1 °F 6.1 °F 1030.0 in SE 0.2 mph 1.6 mph 40% 0.0 in WeatherDisplay:10.37 W/m2 CLR
10:17 20.1 °F 5.3 °F 1030.0 in Calm     38% 0.0 in WeatherDisplay:10.37 W/m2 CLR
10:22 20.3 °F 6.6 °F 1030.0 in Calm   1.9 mph 41% 0.0 in WeatherDisplay:10.37 W/m2 CLR
10:27 20.4 °F 5.6 °F 1030.0 in ENE 1.3 mph 6.4 mph 38% 0.0 in WeatherDisplay:10.37 W/m2 CLR
10:32 20.7 °F 6.2 °F 1030.0 in East 0.8 mph 3.2 mph 39% 0.0 in WeatherDisplay:10.37 W/m2 CLR
10:37 20.8 °F 5.6 °F 1030.0 in East 3.4 mph 9.7 mph 37% 0.0 in WeatherDisplay:10.37 W/m2 CLR
10:42 20.6 °F 6.1 °F 1030.0 in ESE 0.5 mph 3.7 mph 39% 0.0 in WeatherDisplay:10.37 W/m2 CLR
10:47 20.7 °F 6.2 °F 1030.0 in SE 0.2 mph 1.9 mph 39% 0.0 in WeatherDisplay:10.37 W/m2 CLR
10:53 20.9 °F 6.1 °F 1030.0 in Calm     38% 0.0 in WeatherDisplay:10.37 W/m2 CLR
10:58 21.0 °F 5.7 °F 1030.0 in East 1.0 mph 3.7 mph 37% 0.0 in WeatherDisplay:10.37 W/m2 CLR
11:03 20.9 °F 5.3 °F 1030.4 in SSE 0.2 mph 5.6 mph 36% 0.0 in WeatherDisplay:10.37 W/m2 CLR
11:08 20.9 °F 6.4 °F 1030.4 in ESE 0.3 mph 3.7 mph 39% 0.0 in WeatherDisplay:10.37 W/m2 CLR
11:13 20.9 °F 5.7 °F 1030.4 in SSE 1.8 mph 5.6 mph 37% 0.0 in WeatherDisplay:10.37 W/m2 CLR
11:18 20.9 °F 5.7 °F 1030.0 in Calm     37% 0.0 in WeatherDisplay:10.37 W/m2 CLR
11:23 20.8 °F 5.6 °F 1030.0 in ESE 2.4 mph 6.4 mph 37% 0.0 in WeatherDisplay:10.37 W/m2 CLR
11:28 20.8 °F 5.6 °F 1030.4 in SSE 0.6 mph 3.7 mph 37% 0.0 in WeatherDisplay:10.37 W/m2 CLR
11:33 20.8 °F 5.6 °F 1030.4 in SSE 2.9 mph 8.0 mph 37% 0.0 in WeatherDisplay:10.37 W/m2 CLR
11:38 20.8 °F 6.0 °F 1030.0 in SSE 0.5 mph 9.3 mph 38% 0.0 in WeatherDisplay:10.37 W/m2 CLR
11:43 20.9 °F 5.3 °F 1030.0 in Calm   1.6 mph 36% 0.0 in WeatherDisplay:10.37 W/m2 CLR
11:48 21.2 °F 5.9 °F 1030.0 in Calm     37% 0.0 in WeatherDisplay:10.37 W/m2 CLR
11:53 21.6 °F 5.8 °F 1030.0 in SE 1.9 mph 6.4 mph 36% 0.0 in WeatherDisplay:10.37 W/m2 CLR
11:59 21.6 °F 5.8 °F 1030.0 in Calm   3.7 mph 36% 0.0 in WeatherDisplay:10.37 W/m2 CLR
12:04 21.4 °F 5.7 °F 1030.0 in Calm     36% 0.0 in WeatherDisplay:10.37 W/m2 CLR
12:09 21.3 °F 5.7 °F 1030.0 in Calm     36% 0.0 in WeatherDisplay:10.37 W/m2 CLR
12:14 21.1 °F 5.8 °F 1030.0 in SSE 2.6 mph 6.4 mph 37% 0.0 in WeatherDisplay:10.37 W/m2 CLR
12:19 20.8 °F 5.6 °F 1030.0 in South 0.6 mph 6.4 mph 37% 0.0 in WeatherDisplay:10.37 W/m2 CLR
12:24 21.6 °F 5.8 °F 1030.0 in ENE 0.2 mph 1.9 mph 36% 0.0 in WeatherDisplay:10.37 W/m2 CLR
12:29 21.8 °F 5.2 °F 1030.0 in ESE 4.2 mph 11.3 mph 34% 0.0 in WeatherDisplay:10.37 W/m2 CLR
12:34 21.7 °F 5.1 °F 1030.0 in Calm     34% 0.0 in WeatherDisplay:10.37 W/m2 CLR
12:39 21.6 °F 6.6 °F 1030.0 in Calm     38% 0.0 in WeatherDisplay:10.37 W/m2 CLR
12:44 21.7 °F 5.1 °F 1030.0 in Calm     34% 0.0 in WeatherDisplay:10.37 W/m2 CLR
12:49 22.0 °F 5.4 °F 1030.0 in East 0.2 mph 1.6 mph 34% 0.0 in WeatherDisplay:10.37 W/m2 CLR
12:55 21.8 °F 5.3 °F 1030.0 in SE 2.1 mph 6.4 mph 34% 0.0 in WeatherDisplay:10.37 W/m2 CLR
13:00 21.9 °F 5.8 °F 1030.0 in Calm   3.7 mph 35% 0.0 in WeatherDisplay:10.37 W/m2 CLR
13:05 21.7 °F 5.6 °F 1029.7 in South 0.8 mph 11.1 mph 35% 0.0 in WeatherDisplay:10.37 W/m2 CLR
13:10 21.6 °F 5.5 °F 1030.0 in ENE 0.5 mph 6.4 mph 35% 0.0 in WeatherDisplay:10.37 W/m2 CLR
13:15 21.6 °F 5.4 °F 1030.0 in Calm     35% 0.0 in WeatherDisplay:10.37 W/m2 CLR
13:20 21.9 °F 5.3 °F 1029.7 in SSE 4.3 mph 9.3 mph 34% 0.0 in WeatherDisplay:10.37 W/m2 CLR
13:25 21.7 °F 5.6 °F 1029.7 in Calm     35% 0.0 in WeatherDisplay:10.37 W/m2 CLR
13:30 21.8 °F 5.7 °F 1029.7 in South 0.2 mph 1.9 mph 35% 0.0 in WeatherDisplay:10.37 W/m2 CLR
13:35 22.1 °F 5.4 °F 1029.7 in SE 1.4 mph 7.4 mph 34% 0.0 in WeatherDisplay:10.37 W/m2 CLR
13:40 21.8 °F 5.2 °F 1029.7 in Calm   7.4 mph 34% 0.0 in WeatherDisplay:10.37 W/m2 CLR
13:45 21.5 °F 4.9 °F 1029.7 in Calm     34% 0.0 in WeatherDisplay:10.37 W/m2 CLR
13:50 21.7 °F 5.6 °F 1029.7 in ESE 1.6 mph 6.4 mph 35% 0.0 in WeatherDisplay:10.37 W/m2 CLR
13:55 22.1 °F 5.4 °F 1029.7 in SE 1.6 mph 13.0 mph 34% 0.0 in WeatherDisplay:10.37 W/m2 CLR
14:01 21.6 °F 5.1 °F 1029.7 in SSE 0.6 mph 13.0 mph 34% 0.0 in WeatherDisplay:10.37 W/m2 CLR
14:06 21.6 °F 5.0 °F 1029.7 in SSE 0.2 mph 7.4 mph 34% 0.0 in WeatherDisplay:10.37 W/m2 CLR
14:11 21.6 °F 5.8 °F 1029.7 in Calm     36% 0.0 in WeatherDisplay:10.37 W/m2 CLR
14:16 21.7 °F 5.2 °F 1029.7 in ESE 3.1 mph 12.9 mph 34% 0.0 in WeatherDisplay:10.37 W/m2 CLR
14:21 21.6 °F 5.5 °F 1029.7 in ESE 0.3 mph 3.7 mph 35% 0.0 in WeatherDisplay:10.37 W/m2 CLR
14:26 21.6 °F 5.5 °F 1029.7 in South 1.6 mph 5.6 mph 35% 0.0 in WeatherDisplay:10.37 W/m2 CLR
14:31 21.4 °F 5.3 °F 1029.7 in ESE 0.2 mph 1.9 mph 35% 0.0 in WeatherDisplay:10.37 W/m2 CLR
14:36 21.4 °F 5.3 °F 1029.7 in East 0.6 mph 5.6 mph 35% 0.0 in WeatherDisplay:10.37 W/m2 CLR
14:41 21.4 °F 5.7 °F 1029.7 in SE 1.8 mph 9.7 mph 36% 0.0 in WeatherDisplay:10.37 W/m2 CLR
14:46 21.2 °F 5.5 °F 1029.7 in Calm     36% 0.0 in WeatherDisplay:10.37 W/m2 CLR
14:47 21.1 °F 5.4 °F 1029.7 in Calm     36% 0.0 in WeatherDisplay:10.37 W/m2 CLR
14:52 20.8 °F 5.2 °F 1029.7 in South 6.8 mph 13.0 mph 36% 0.0 in WeatherDisplay:10.37 W/m2 CLR
14:57 20.7 °F 5.5 °F 1029.7 in Calm     37% 0.0 in WeatherDisplay:10.37 W/m2 CLR
15:02 20.7 °F 5.1 °F 1029.3 in East 1.1 mph 4.8 mph 36% 0.0 in WeatherDisplay:10.37 W/m2 CLR
15:07 20.6 °F 5.4 °F 1029.7 in SW 1.4 mph 9.7 mph 37% 0.0 in WeatherDisplay:10.37 W/m2 CLR
15:12 20.6 °F 5.7 °F 1029.7 in SSE 2.4 mph 9.3 mph 38% 0.0 in WeatherDisplay:10.37 W/m2 CLR
15:17 20.4 °F 5.3 °F 1029.3 in South 0.6 mph 6.4 mph 37% 0.0 in WeatherDisplay:10.37 W/m2 CLR
15:22 20.3 °F 5.2 °F 1029.3 in ENE 0.3 mph 5.6 mph 37% 0.0 in WeatherDisplay:10.37 W/m2 CLR
15:27 20.4 °F 5.2 °F 1029.3 in SE 1.0 mph 4.8 mph 37% 0.0 in WeatherDisplay:10.37 W/m2 CLR
15:32 20.4 °F 6.0 °F 1029.3 in East 1.0 mph 6.4 mph 39% 0.0 in WeatherDisplay:10.37 W/m2 CLR
15:38 20.4 °F 5.2 °F 1029.3 in Calm     37% 0.0 in WeatherDisplay:10.37 W/m2 CLR
15:43 20.3 °F 5.9 °F 1029.3 in SE 0.3 mph 3.2 mph 39% 0.0 in WeatherDisplay:10.37 W/m2 CLR
15:48 20.2 °F 5.4 °F 1029.3 in SSE 3.5 mph 14.8 mph 38% 0.0 in WeatherDisplay:10.37 W/m2 CLR
15:53 20.2 °F 5.0 °F 1029.3 in Calm   1.9 mph 37% 0.0 in WeatherDisplay:10.37 W/m2 CLR
15:58 20.0 °F 4.8 °F 1029.3 in SE 0.2 mph 9.3 mph 37% 0.0 in WeatherDisplay:10.37 W/m2 CLR
16:03 19.9 °F 4.8 °F 1029.3 in SSE 1.1 mph 5.6 mph 37% 0.0 in WeatherDisplay:10.37 W/m2 CLR
16:08 19.9 °F 5.2 °F 1029.3 in SSE 0.8 mph 5.6 mph 38% 0.0 in WeatherDisplay:10.37 W/m2 CLR
16:13 19.9 °F 5.2 °F 1029.3 in Calm   1.9 mph 38% 0.0 in WeatherDisplay:10.37 W/m2 CLR
16:18 19.9 °F 4.8 °F 1029.0 in SSE 5.0 mph 14.8 mph 37% 0.0 in WeatherDisplay:10.37 W/m2 CLR
16:23 19.8 °F 5.1 °F 1029.0 in Calm   1.6 mph 38% 0.0 in WeatherDisplay:10.37 W/m2 CLR
16:28 19.8 °F 4.7 °F 1029.0 in Calm   7.4 mph 37% 0.0 in WeatherDisplay:10.37 W/m2 CLR
16:38 19.7 °F 5.0 °F 1029.0 in NE 0.2 mph 3.7 mph 38% 0.0 in WeatherDisplay:10.37 W/m2 CLR
16:44 19.9 °F 5.2 °F 1029.0 in SSE 0.2 mph 3.7 mph 38% 0.0 in WeatherDisplay:10.37 W/m2 CLR
16:49 19.9 °F 4.8 °F 1029.0 in ESE 2.1 mph 5.6 mph 37% 0.0 in WeatherDisplay:10.37 W/m2 CLR
16:54 19.9 °F 4.8 °F 1029.0 in Calm   7.4 mph 37% 0.0 in WeatherDisplay:10.37 W/m2 CLR
16:59 19.8 °F 4.7 °F 1029.0 in SE 1.3 mph 9.3 mph 37% 0.0 in WeatherDisplay:10.37 W/m2 CLR
17:04 19.8 °F 5.1 °F 1029.0 in SSW 0.5 mph 9.3 mph 38% 0.0 in WeatherDisplay:10.37 W/m2 CLR
17:09 19.9 °F 5.2 °F 1029.0 in East 3.5 mph 12.9 mph 38% 0.0 in WeatherDisplay:10.37 W/m2 CLR
17:14 19.8 °F 5.1 °F 1029.0 in SSE 1.9 mph 9.3 mph 38% 0.0 in WeatherDisplay:10.37 W/m2 CLR
17:19 19.8 °F 5.1 °F 1029.0 in SSE 0.6 mph 4.8 mph 38% 0.0 in WeatherDisplay:10.37 W/m2 CLR
17:24 19.8 °F 5.1 °F 1029.0 in SSE 2.1 mph 11.3 mph 38% 0.0 in WeatherDisplay:10.37 W/m2 CLR
17:29 19.7 °F 4.6 °F 1029.0 in South 2.1 mph 6.4 mph 37% 0.0 in WeatherDisplay:10.37 W/m2 CLR
17:34 19.6 °F 4.8 °F 1028.7 in Calm     38% 0.0 in WeatherDisplay:10.37 W/m2 CLR
17:39 19.4 °F 4.4 °F 1028.7 in SE 2.9 mph 8.0 mph 37% 0.0 in WeatherDisplay:10.37 W/m2 CLR
17:44 19.5 °F 4.8 °F 1028.7 in Calm   1.9 mph 38% 0.0 in WeatherDisplay:10.37 W/m2 CLR
17:50 19.5 °F 4.8 °F 1028.7 in SSE 2.6 mph 9.7 mph 38% 0.0 in WeatherDisplay:10.37 W/m2 CLR
17:55 19.5 °F 4.8 °F 1028.7 in South 0.5 mph 6.4 mph 38% 0.0 in WeatherDisplay:10.37 W/m2 CLR
18:00 19.5 °F 4.8 °F 1029.0 in SE 4.8 mph 13.0 mph 38% 0.0 in WeatherDisplay:10.37 W/m2 CLR
18:05 19.4 °F 4.7 °F 1028.7 in Calm     38% 0.0 in WeatherDisplay:10.37 W/m2 CLR
18:10 19.4 °F 4.7 °F 1028.7 in East 0.3 mph 3.2 mph 38% 0.0 in WeatherDisplay:10.37 W/m2 CLR
18:15 19.3 °F 5.0 °F 1028.7 in East 0.2 mph 1.9 mph 39% 0.0 in WeatherDisplay:10.37 W/m2 CLR
18:20 19.3 °F 4.6 °F 1028.7 in SE 0.3 mph 3.7 mph 38% 0.0 in WeatherDisplay:10.37 W/m2 CLR
18:25 19.3 °F 4.9 °F 1028.7 in SSE 4.2 mph 11.3 mph 39% 0.0 in WeatherDisplay:10.37 W/m2 CLR
18:30 19.3 °F 4.6 °F 1028.7 in SE 3.2 mph 5.6 mph 38% 0.0 in WeatherDisplay:10.37 W/m2 CLR
18:35 19.2 °F 4.9 °F 1028.7 in Calm     39% 0.0 in WeatherDisplay:10.37 W/m2 CLR
18:40 19.1 °F 4.8 °F 1028.7 in Calm   5.6 mph 39% 0.0 in WeatherDisplay:10.37 W/m2 CLR
18:45 19.1 °F 4.4 °F 1028.7 in SE 0.3 mph 1.9 mph 38% 0.0 in WeatherDisplay:10.37 W/m2 CLR
18:50 18.9 °F 4.7 °F 1028.7 in Calm     39% 0.0 in WeatherDisplay:10.37 W/m2 CLR
18:56 18.9 °F 4.6 °F 1028.7 in South 0.2 mph 6.4 mph 39% 0.0 in WeatherDisplay:10.37 W/m2 CLR
19:01 18.8 °F 4.6 °F 1028.7 in Calm     39% 0.0 in WeatherDisplay:10.37 W/m2 CLR
19:06 18.7 °F 5.2 °F 1028.7 in SSW 0.6 mph 11.1 mph 41% 0.0 in WeatherDisplay:10.37 W/m2 CLR
19:11 18.6 °F 4.7 °F 1028.7 in South 0.3 mph 3.7 mph 40% 0.0 in WeatherDisplay:10.37 W/m2 CLR
19:16 18.5 °F 5.0 °F 1028.7 in SSE 0.5 mph 5.6 mph 41% 0.0 in WeatherDisplay:10.37 W/m2 CLR
19:21 18.4 °F 4.9 °F 1028.7 in Calm     41% 0.0 in WeatherDisplay:10.37 W/m2 CLR
19:26 18.4 °F 4.9 °F 1028.7 in Calm     41% 0.0 in WeatherDisplay:10.37 W/m2 CLR
19:31 18.3 °F 4.8 °F 1028.7 in SSE 0.2 mph 1.9 mph 41% 0.0 in WeatherDisplay:10.37 W/m2 CLR
19:36 18.2 °F 5.4 °F 1028.7 in Calm     43% 0.0 in WeatherDisplay:10.37 W/m2 CLR
19:41 18.1 °F 5.0 °F 1028.7 in Calm     42% 0.0 in WeatherDisplay:10.37 W/m2 CLR
19:46 18.1 °F 4.6 °F 1028.7 in Calm   1.9 mph 41% 0.0 in WeatherDisplay:10.37 W/m2 CLR
19:51 18.0 °F 4.9 °F 1028.7 in Calm     42% 0.0 in WeatherDisplay:10.37 W/m2 CLR
19:56 17.8 °F 5.4 °F 1028.7 in Calm     44% 0.0 in WeatherDisplay:10.37 W/m2 CLR
20:02 17.7 °F 4.6 °F 1028.7 in Calm     42% 0.0 in WeatherDisplay:10.37 W/m2 CLR
20:07 17.7 °F 5.9 °F 1028.7 in Calm     46% 0.0 in WeatherDisplay:10.37 W/m2 CLR
20:12 17.5 °F 5.7 °F 1028.7 in Calm     46% 0.0 in WeatherDisplay:10.37 W/m2 CLR
20:17 17.3 °F 5.6 °F 1028.7 in Calm     46% 0.0 in WeatherDisplay:10.37 W/m2 CLR
20:22 17.2 °F 5.1 °F 1028.7 in Calm     45% 0.0 in WeatherDisplay:10.37 W/m2 CLR
20:27 17.1 °F 5.7 °F 1028.7 in Calm     47% 0.0 in WeatherDisplay:10.37 W/m2 CLR
20:32 16.9 °F 5.8 °F 1028.7 in Calm     48% 0.0 in WeatherDisplay:10.37 W/m2 CLR
20:37 16.7 °F 5.3 °F 1028.7 in Calm     47% 0.0 in WeatherDisplay:10.37 W/m2 CLR
20:42 16.5 °F 5.4 °F 1028.3 in Calm     48% 0.0 in WeatherDisplay:10.37 W/m2 CLR
20:47 16.2 °F 5.2 °F 1028.3 in Calm     48% 0.0 in WeatherDisplay:10.37 W/m2 CLR
20:52 16.0 °F 5.6 °F 1028.3 in Calm     50% 0.0 in WeatherDisplay:10.37 W/m2 CLR
20:57 15.8 °F 5.7 °F 1028.3 in Calm     51% 0.0 in WeatherDisplay:10.37 W/m2 CLR
21:02 15.6 °F 5.8 °F 1028.3 in Calm     52% 0.0 in WeatherDisplay:10.37 W/m2 CLR
21:08 15.4 °F 5.6 °F 1028.3 in Calm     52% 0.0 in WeatherDisplay:10.37 W/m2 CLR
21:13 15.3 °F 5.8 °F 1028.3 in Calm     53% 0.0 in WeatherDisplay:10.37 W/m2 CLR
21:18 15.2 °F 5.7 °F 1028.3 in Calm     53% 0.0 in WeatherDisplay:10.37 W/m2 CLR
Tuulensuunkaari, Veikkola, Suomi
Compliments of Weather Underground - 2.5 mb